UUOK

Details ICAO UUOK (URS)
Name KURSK
Region Russia
Timezone Europe/Moscow (UTC+3.0)
Plans Departing 17
Arriving 22
Stats Elevation 686 ft / 209 m (AMSL)
Location 51.750613° 36.295586°
Runways 1
Magnetic Variation 9.229° E
Sunrise 2018-05-21 01:35:21 UTC / 2018-05-21 04:35:21 Local
Sunset 2018-05-21 17:30:18 UTC / 2018-05-21 20:30:18 Local
Advertisement - Login to hide

Runways

ID Width Length Bearing (true) Bearing (mag) Surface Threshold Offset Overrun Length
12 131 ft / 40 m 8,183 ft / 2,494 m 124.05° 114.82° Concrete 0 ft / 0 m 0 ft / 0 m
30 131 ft / 40 m 8,183 ft / 2,494 m 304.07° 294.84° Concrete 0 ft / 0 m 0 ft / 0 m

Map

Weather


0- 5 10 15 20 25 30 35+ Temperature / ° C

Clouds and Precipitation
Forecast for 2018-05-21 12:00 UTC. Updated 3 hours ago

Ground ~20,000 ft ~40,000 ft Winds

METAR

UUOK 211330Z 07006MPS 9999 BKN008 OVC020CB 12/12 Q1021 R12/290155 NOSIG RMK QFE747/0997

TAF

Not found

Frequencies

Ground 120.60 MHz TAXIING
Approach 131.50 MHz KRUG
Tower 131.50 MHz START
Warning: Do not use this data for real-world aviation or navigation. No guarantee of current accuracy is given.